Ben Bolt, Texas
Current Conditions -  °F | °C
As of 3:53 PM on Wednesday 22 Oct 2014 (Local Time) from KALI Reporting Station
Few Clouds Few Clouds  
Wind Chill: 86°   Ceiling: Unl
Heat Index: 86°   Visibility: 10mi
Dew Point: 61°   Wind: 14mph
Humidity: 43%   Direction: 90°E
Pressure: 29.98"   Gusts: NA
Location:  27.65°N, 98.08°W
Report Text: KALI 222053Z AUTO 09012KT 10SM FEW050 30/16 A2998 RMK AO2 SLP150 T03000161 56019
Loading
Personal Weather Stations






























Interactive Weather Map
Tropical Storm Tracking
New forecast layout! Learn more

10-Day Weather Forecast

Advertisements
Track Severe Weather on mobile